Time;durP1;ratioP1;P1;durP2;ratioP2;P2;SDS_P1;SDS_P2;PMS_P1;PMS_P2;Temp;Humidity;BMP_temperature;BMP_pressure;BME280_temperature;BME280_humidity;BME280_pressure;Samples;Min_cycle;Max_cycle;Signal;HPM_P1;HPM_P2
2022/06/27 00:02:18;;;;;;;21.42;10.77;;;;;;;16.42;100.00;101383.75;5059196;28;20025;-63
2022/06/27 00:04:43;;;;;;;21.48;10.35;;;;;;;16.39;100.00;101374.84;5059206;28;20379;-64
2022/06/27 00:07:09;;;;;;;21.15;10.65;;;;;;;16.36;100.00;101369.56;5058877;28;20033;-64
2022/06/27 00:09:34;;;;;;;22.80;10.70;;;;;;;16.36;100.00;101380.22;5058911;28;20056;-63
2022/06/27 00:12:00;;;;;;;21.42;10.80;;;;;;;16.33;100.00;101374.06;5058872;28;20025;-63
2022/06/27 00:14:26;;;;;;;21.45;10.80;;;;;;;16.30;100.00;101374.97;5058795;28;20426;-64
2022/06/27 00:16:52;;;;;;;21.77;11.00;;;;;;;16.27;100.00;101375.00;5059298;28;20021;-63
2022/06/27 00:19:17;;;;;;;22.42;11.32;;;;;;;16.21;100.00;101388.41;5058947;28;20070;-64
2022/06/27 00:21:43;;;;;;;20.75;10.73;;;;;;;16.24;100.00;101379.47;5059084;28;20029;-64
2022/06/27 00:24:09;;;;;;;22.15;10.57;;;;;;;16.31;100.00;101383.84;5058916;28;20135;-64
2022/06/27 00:26:34;;;;;;;22.17;11.07;;;;;;;16.29;100.00;101385.66;5058797;28;20071;-64
2022/06/27 00:28:59;;;;;;;21.67;11.10;;;;;;;16.25;100.00;101398.16;5058677;28;20032;-64
2022/06/27 00:31:25;;;;;;;22.23;10.93;;;;;;;16.33;100.00;101404.28;5058891;28;20017;-62
2022/06/27 00:33:50;;;;;;;23.20;11.95;;;;;;;16.28;100.00;101406.13;5058700;28;20032;-63
2022/06/27 00:36:15;;;;;;;22.88;11.60;;;;;;;16.26;100.00;101401.69;5058650;28;20083;-62
2022/06/27 00:38:41;;;;;;;22.25;11.00;;;;;;;16.21;100.00;101399.97;5058827;28;20096;-64
2022/06/27 00:41:06;;;;;;;22.55;11.75;;;;;;;16.16;100.00;101396.47;5058488;28;20044;-65
2022/06/27 00:43:31;;;;;;;22.08;11.25;;;;;;;16.14;100.00;101402.72;5059114;28;20040;-63
2022/06/27 00:45:57;;;;;;;21.95;11.20;;;;;;;16.15;100.00;101415.13;5058697;28;20433;-64
2022/06/27 00:48:22;;;;;;;21.77;11.10;;;;;;;16.14;100.00;101413.38;5058674;28;20399;-64
2022/06/27 00:50:47;;;;;;;22.88;11.60;;;;;;;16.12;100.00;101409.81;5058624;28;20041;-61
2022/06/27 00:53:13;;;;;;;23.80;11.63;;;;;;;16.08;100.00;101411.66;5058476;28;20029;-62
2022/06/27 00:55:39;;;;;;;22.60;11.35;;;;;;;16.10;100.00;101411.63;5058918;28;20029;-61
2022/06/27 00:58:05;;;;;;;22.75;10.88;;;;;;;16.10;100.00;101416.97;5058877;28;20025;-61
2022/06/27 01:00:30;;;;;;;22.70;12.00;;;;;;;16.07;100.00;101411.66;5058748;28;20033;-62
2022/06/27 01:02:56;;;;;;;23.38;11.63;;;;;;;16.08;100.00;101410.78;5058602;28;20013;-62
2022/06/27 01:05:21;;;;;;;23.10;11.48;;;;;;;16.10;100.00;101408.97;5058674;28;20037;-62
2022/06/27 01:07:47;;;;;;;22.48;11.65;;;;;;;16.13;100.00;101417.81;5055810;28;20026;-61
2022/06/27 01:10:12;;;;;;;22.52;11.07;;;;;;;16.13;100.00;101415.16;5055319;28;20071;-62
2022/06/27 01:12:41;;;;;;;23.38;11.45;;;;;;;16.16;100.00;101415.16;5055198;28;20476;-61
2022/06/27 01:15:09;;;;;;;22.27;10.90;;;;;;;16.16;100.00;101422.25;5055427;28;20430;-61
2022/06/27 01:17:35;;;;;;;22.33;11.20;;;;;;;16.12;100.00;101420.50;5055129;28;20025;-61
2022/06/27 01:20:01;;;;;;;22.98;11.15;;;;;;;16.06;100.00;101417.91;5055512;28;20506;-61
2022/06/27 01:22:26;;;;;;;22.15;11.07;;;;;;;16.06;100.00;101423.22;5054994;28;20032;-62
2022/06/27 01:24:52;;;;;;;23.65;11.52;;;;;;;16.01;100.00;101426.81;5055190;28;20079;-62
2022/06/27 01:27:17;;;;;;;23.23;11.85;;;;;;;16.03;100.00;101421.47;5055090;28;21891;-62
2022/06/27 01:29:42;;;;;;;24.02;11.52;;;;;;;16.04;100.00;101417.91;5054881;28;20021;-61
2022/06/27 01:32:08;;;;;;;23.48;11.90;;;;;;;16.06;100.00;101417.91;5055068;28;20364;-62
2022/06/27 01:34:34;;;;;;;23.00;12.13;;;;;;;16.02;100.00;101417.94;5053456;28;20029;-62
2022/06/27 01:37:00;;;;;;;22.83;11.75;;;;;;;16.00;100.00;101405.50;5054817;28;20427;-61
2022/06/27 01:39:26;;;;;;;22.83;11.70;;;;;;;16.00;100.00;101401.06;5054793;28;20025;-62
2022/06/27 01:41:57;;;;;;;24.42;12.18;;;;;;;16.01;100.00;101392.16;5054649;28;20062;-61
2022/06/27 01:44:26;;;;;;;23.90;12.05;;;;;;;16.04;100.00;101378.78;5054559;28;20056;-61
2022/06/27 01:46:54;;;;;;;23.48;11.85;;;;;;;16.08;100.00;101378.78;5054552;28;20461;-61
2022/06/27 01:49:19;;;;;;;23.98;12.05;;;;;;;16.11;100.00;101376.09;5054702;28;20094;-62
2022/06/27 01:51:49;;;;;;;23.27;12.45;;;;;;;16.10;100.00;101382.31;5054482;28;20032;-62
2022/06/27 01:54:18;;;;;;;24.05;12.80;;;;;;;16.02;100.00;101383.25;5054495;28;20124;-61
2022/06/27 01:56:44;;;;;;;24.20;12.88;;;;;;;15.98;100.00;101384.19;5054926;28;20115;-61
2022/06/27 01:59:14;;;;;;;24.08;12.57;;;;;;;15.95;100.00;101375.34;5054333;28;20021;-62
2022/06/27 02:01:41;;;;;;;22.83;12.07;;;;;;;15.94;100.00;101371.78;5054263;28;20025;-61
2022/06/27 02:04:06;;;;;;;23.20;12.50;;;;;;;15.94;100.00;101369.13;5054410;28;20040;-61
2022/06/27 02:06:32;;;;;;;23.25;12.23;;;;;;;15.92;100.00;101365.59;5054215;28;20020;-61
2022/06/27 02:08:58;;;;;;;23.13;12.60;;;;;;;15.91;100.00;101371.81;5054211;28;20357;-62
2022/06/27 02:11:25;;;;;;;22.98;12.80;;;;;;;15.92;100.00;101372.72;5054397;28;20464;-62
2022/06/27 02:13:50;;;;;;;24.13;12.55;;;;;;;15.96;100.00;101367.34;5054033;28;20495;-61
2022/06/27 02:16:18;;;;;;;24.20;13.30;;;;;;;15.96;100.00;101367.34;5054084;28;20024;-62
2022/06/27 02:18:44;;;;;;;24.48;12.77;;;;;;;15.98;100.00;101359.31;5054046;28;20025;-62
2022/06/27 02:21:11;;;;;;;23.70;12.70;;;;;;;16.00;100.00;101357.50;5054203;28;20021;-62
2022/06/27 02:23:38;;;;;;;23.45;12.75;;;;;;;15.99;100.00;101353.09;5053904;28;20102;-62
2022/06/27 02:26:06;;;;;;;24.50;13.18;;;;;;;15.94;100.00;101342.44;5054139;28;20025;-63
2022/06/27 02:28:32;;;;;;;23.83;12.82;;;;;;;15.88;100.00;101342.53;5053992;28;20021;-62
2022/06/27 02:30:58;;;;;;;25.15;13.70;;;;;;;15.87;100.00;101340.75;5053746;28;20158;-62
2022/06/27 02:33:32;;;;;;;23.95;13.35;;;;;;;15.88;100.00;101350.50;5053820;28;20451;-62
2022/06/27 02:35:58;;;;;;;24.75;13.35;;;;;;;15.85;100.00;101345.22;5053637;28;20510;-61
2022/06/27 02:38:25;;;;;;;24.80;12.85;;;;;;;15.85;100.00;101350.56;5053463;28;20435;-62
2022/06/27 02:40:51;;;;;;;25.88;13.85;;;;;;;15.87;100.00;101351.41;5053734;28;20040;-61
2022/06/27 02:43:18;;;;;;;24.40;13.07;;;;;;;15.88;100.00;101344.31;5049470;28;20044;-63
2022/06/27 02:45:45;;;;;;;23.48;13.30;;;;;;;15.92;100.00;101344.25;5053592;28;20383;-62
2022/06/27 02:48:12;;;;;;;24.55;13.25;;;;;;;15.95;100.00;101344.22;5053652;28;20074;-62
2022/06/27 02:50:41;;;;;;;23.98;12.98;;;;;;;15.93;100.00;101335.38;5053203;28;20041;-62
2022/06/27 02:53:10;;;;;;;24.20;13.55;;;;;;;15.91;100.00;101326.50;5053297;28;20040;-62
2022/06/27 02:55:40;;;;;;;23.98;13.43;;;;;;;15.84;100.00;101315.03;5053625;28;20025;-61
2022/06/27 02:58:15;;;;;;;23.48;13.07;;;;;;;15.77;100.00;101307.94;5053396;28;20102;-62
2022/06/27 03:00:41;;;;;;;23.42;13.02;;;;;;;15.74;100.00;101307.97;5053100;28;20048;-61
2022/06/27 03:03:10;;;;;;;23.08;13.20;;;;;;;15.64;100.00;101316.94;5053115;28;20017;-62
2022/06/27 03:05:36;;;;;;;23.95;13.93;;;;;;;15.56;100.00;101305.47;5053324;28;20056;-61
2022/06/27 03:08:01;;;;;;;26.27;14.48;;;;;;;15.49;100.00;101301.97;5053247;28;20525;-61
2022/06/27 03:10:27;;;;;;;25.15;13.98;;;;;;;15.45;100.00;101300.22;5053373;28;20032;-62
2022/06/27 03:12:52;;;;;;;24.77;13.88;;;;;;;15.36;100.00;101300.31;5053162;28;20452;-62
2022/06/27 03:15:18;;;;;;;24.17;14.10;;;;;;;15.27;100.00;101296.81;5053036;28;20037;-62
2022/06/27 03:17:43;;;;;;;24.10;13.00;;;;;;;15.21;100.00;101296.00;5052900;28;20025;-61
2022/06/27 03:20:09;;;;;;;23.33;13.43;;;;;;;15.09;100.00;101303.19;5053337;28;20029;-62
2022/06/27 03:22:34;;;;;;;25.10;13.38;;;;;;;15.01;100.00;101304.13;5052718;28;20052;-62
2022/06/27 03:25:00;;;;;;;25.00;13.77;;;;;;;14.95;100.00;101302.38;5052628;28;20025;-62
2022/06/27 03:27:25;;;;;;;24.88;14.05;;;;;;;14.91;100.00;101303.28;5052973;28;20024;-61
2022/06/27 03:29:50;;;;;;;25.95;13.93;;;;;;;14.81;100.00;101303.38;5052726;28;20037;-61
2022/06/27 03:32:15;;;;;;;24.33;14.57;;;;;;;14.73;100.00;101305.19;5052227;28;20476;-62
2022/06/27 03:34:41;;;;;;;26.67;14.63;;;;;;;14.69;100.00;101298.09;5052927;28;20033;-61
2022/06/27 03:37:07;;;;;;;26.05;14.63;;;;;;;14.66;100.00;101292.78;5052873;28;20033;-61
2022/06/27 03:39:33;;;;;;;26.52;14.77;;;;;;;14.61;100.00;101303.47;5052677;28;20086;-62
2022/06/27 03:41:58;;;;;;;25.65;14.95;;;;;;;14.55;100.00;101308.78;5052771;28;20025;-62
2022/06/27 03:44:24;;;;;;;25.25;15.00;;;;;;;14.44;100.00;101305.28;5052701;28;20349;-62
2022/06/27 03:46:49;;;;;;;26.55;15.15;;;;;;;14.38;100.00;101294.69;5052846;28;20057;-61
2022/06/27 03:51:58;;;;;;;27.33;14.52;;;;;;;14.43;100.00;101299.09;5049868;28;20059;-64
2022/06/27 03:54:23;;;;;;;25.15;14.57;;;;;;;14.42;100.00;101305.31;5052565;28;20025;-63
2022/06/27 03:56:49;;;;;;;25.83;14.88;;;;;;;14.44;100.00;101310.59;5052713;28;20021;-64
2022/06/27 03:59:14;;;;;;;25.83;14.55;;;;;;;14.43;100.00;101316.81;5052669;28;20379;-63
2022/06/27 04:01:40;;;;;;;24.83;14.45;;;;;;;14.47;100.00;101319.47;5052331;28;20495;-63
2022/06/27 04:04:06;;;;;;;25.15;14.75;;;;;;;14.51;100.00;101328.31;5052545;28;20063;-63
2022/06/27 04:06:32;;;;;;;28.50;16.75;;;;;;;14.50;100.00;101329.19;5052197;28;20087;-64
2022/06/27 04:08:57;;;;;;;26.60;15.43;;;;;;;14.58;100.00;101324.75;5052139;28;20464;-62
2022/06/27 04:11:23;;;;;;;25.65;14.95;;;;;;;14.66;100.00;101314.09;5052405;28;20027;-63
2022/06/27 04:13:48;;;;;;;25.98;15.30;;;;;;;14.78;100.00;101314.03;5052165;28;20025;-65
2022/06/27 04:16:13;;;;;;;28.27;16.33;;;;;;;14.89;100.00;101321.94;5052415;28;20029;-64
2022/06/27 04:18:39;;;;;;;26.98;15.80;;;;;;;14.97;100.00;101314.81;5052211;28;20461;-64
2022/06/27 04:21:04;;;;;;;28.02;16.20;;;;;;;15.13;100.00;101317.34;5052210;28;20036;-63
2022/06/27 04:23:29;;;;;;;26.30;15.60;;;;;;;15.29;100.00;101305.69;5052250;28;20529;-66
2022/06/27 04:25:55;;;;;;;27.33;15.75;;;;;;;15.42;100.00;101297.59;5052041;28;20040;-63
2022/06/27 04:28:20;;;;;;;26.75;16.40;;;;;;;15.55;100.00;101296.59;5052042;28;20052;-64
2022/06/27 04:30:46;;;;;;;26.30;16.10;;;;;;;15.60;100.00;101286.78;5052409;28;20021;-63
2022/06/27 04:33:12;;;;;;;26.58;16.33;;;;;;;15.64;100.00;101280.53;5052168;28;20036;-64
2022/06/27 04:35:40;;;;;;;26.45;16.63;;;;;;;15.74;100.00;101269.78;5052044;28;20379;-62
2022/06/27 04:38:06;;;;;;;27.23;16.20;;;;;;;15.76;100.00;101262.66;5052163;28;20057;-64
2022/06/27 04:40:32;;;;;;;28.60;16.83;;;;;;;15.75;100.00;101247.56;5051788;28;20079;-63
2022/06/27 04:42:58;;;;;;;28.42;17.48;;;;;;;15.77;100.00;101248.41;5053471;28;20028;-63
2022/06/27 04:45:23;;;;;;;26.42;17.27;;;;;;;15.71;100.00;101248.47;5056156;28;20025;-64
2022/06/27 04:47:49;;;;;;;28.73;18.33;;;;;;;15.68;100.00;101260.97;5055866;28;20403;-63
2022/06/27 04:50:18;;;;;;;29.75;18.65;;;;;;;15.67;100.00;101255.66;5055393;28;20049;-63
2022/06/27 04:52:44;;;;;;;28.75;18.08;;;;;;;15.72;100.00;101260.91;5055725;28;20159;-67
2022/06/27 04:55:12;;;;;;;29.60;18.58;;;;;;;15.78;100.00;101274.16;5055543;28;20037;-63
2022/06/27 04:57:40;;;;;;;27.25;18.27;;;;;;;15.78;100.00;101283.06;5055789;28;20028;-64
2022/06/27 05:00:09;;;;;;;28.48;17.65;;;;;;;15.87;100.00;101282.09;5055956;28;20024;-61
2022/06/27 05:02:35;;;;;;;27.65;18.13;;;;;;;15.90;100.00;101275.84;5055329;28;20029;-61
2022/06/27 05:05:01;;;;;;;27.83;18.38;;;;;;;15.91;100.00;101269.63;5055673;28;20039;-61
2022/06/27 05:07:29;;;;;;;30.65;20.30;;;;;;;15.90;100.00;101259.88;5055806;28;20369;-62
2022/06/27 05:09:56;;;;;;;31.02;20.02;;;;;;;15.90;100.00;101258.09;5055389;28;20036;-62
2022/06/27 05:12:22;;;;;;;30.88;20.02;;;;;;;15.87;100.00;101252.78;5045594;28;20037;-71
2022/06/27 05:14:48;;;;;;;28.67;20.20;;;;;;;15.85;100.00;101241.25;5052509;28;20551;-65
2022/06/27 05:17:13;;;;;;;30.48;20.40;;;;;;;15.84;100.00;101247.47;5052910;28;20025;-68
2022/06/27 05:19:38;;;;;;;28.45;19.98;;;;;;;15.83;100.00;101248.41;5053828;28;20057;-68
2022/06/27 05:22:04;;;;;;;29.65;20.98;;;;;;;15.84;100.00;101260.81;5053349;28;20025;-68
2022/06/27 05:24:29;;;;;;;30.75;20.63;;;;;;;15.80;100.00;101270.63;5053301;28;20029;-68
2022/06/27 05:26:55;;;;;;;29.42;20.25;;;;;;;15.75;100.00;101272.41;5052516;28;20036;-71
2022/06/27 05:29:21;;;;;;;30.10;20.75;;;;;;;15.75;100.00;101268.88;5053761;28;20033;-72
2022/06/27 05:31:46;;;;;;;30.52;20.88;;;;;;;15.80;100.00;101270.63;5052983;28;20529;-71
2022/06/27 05:34:12;;;;;;;32.63;20.80;;;;;;;15.82;100.00;101279.47;5053071;28;20060;-68
2022/06/27 05:36:38;;;;;;;30.95;21.38;;;;;;;15.84;100.00;101303.47;5052305;28;20541;-69
2022/06/27 05:39:05;;;;;;;33.63;21.52;;;;;;;15.88;100.00;101331.84;5053356;28;20036;-69
2022/06/27 05:41:30;;;;;;;31.13;20.77;;;;;;;15.92;100.00;101338.94;5052712;28;20047;-68
2022/06/27 05:43:56;;;;;;;32.72;21.48;;;;;;;15.99;100.00;101363.75;5052687;28;20021;-69
2022/06/27 05:46:23;;;;;;;31.40;21.60;;;;;;;16.01;100.00;101364.63;5052603;28;20028;-68
2022/06/27 05:48:48;;;;;;;32.28;21.70;;;;;;;16.10;100.00;101368.97;5052477;28;20021;-67
2022/06/27 05:51:14;;;;;;;31.15;21.45;;;;;;;16.17;100.00;101381.34;5052742;28;20375;-69
2022/06/27 05:53:40;;;;;;;30.30;20.73;;;;;;;16.18;100.00;101391.13;5052204;28;20140;-70
2022/06/27 05:56:06;;;;;;;30.30;20.40;;;;;;;16.16;100.00;101400.91;5051935;28;20108;-69
2022/06/27 05:58:32;;;;;;;31.23;20.52;;;;;;;16.11;100.00;101398.28;5052936;28;20116;-69
2022/06/27 06:00:58;;;;;;;30.90;20.95;;;;;;;16.05;100.00;101390.34;5052315;28;20108;-70
2022/06/27 06:03:24;;;;;;;29.48;19.85;;;;;;;16.12;100.00;101393.81;5052786;28;20021;-70
2022/06/27 06:05:50;;;;;;;29.17;20.92;;;;;;;16.17;100.00;101381.34;5052074;28;20037;-71
2022/06/27 06:08:15;;;;;;;29.73;20.13;;;;;;;16.29;100.00;101365.19;5052402;28;20048;-68
2022/06/27 06:10:41;;;;;;;31.20;21.20;;;;;;;16.43;100.00;101362.38;5052042;28;20460;-66
2022/06/27 06:13:06;;;;;;;29.92;20.95;;;;;;;16.50;100.00;101355.19;5051396;28;20061;-67
2022/06/27 06:15:33;;;;;;;29.80;20.45;;;;;;;16.58;100.00;101360.44;5051643;28;20029;-68
2022/06/27 06:18:03;;;;;;;27.95;19.33;;;;;;;16.65;100.00;101376.34;5052320;28;20567;-67
2022/06/27 06:20:28;;;;;;;28.63;20.10;;;;;;;16.61;100.00;101371.94;5052313;28;20017;-64
2022/06/27 06:22:54;;;;;;;29.90;20.27;;;;;;;16.66;100.00;101375.44;5049637;28;20426;-66
2022/06/27 06:25:20;;;;;;;31.48;21.08;;;;;;;16.64;100.00;101393.25;5051122;28;20116;-67
2022/06/27 06:27:45;;;;;;;30.27;21.52;;;;;;;16.56;100.00;101403.16;5051457;28;20017;-68
2022/06/27 06:30:11;;;;;;;30.25;21.55;;;;;;;16.51;100.00;101407.66;5052103;28;20017;-68
2022/06/27 06:32:36;;;;;;;29.80;20.67;;;;;;;16.48;100.00;101397.00;5052321;28;20025;-67
2022/06/27 06:35:03;;;;;;;29.85;21.70;;;;;;;16.49;100.00;101401.47;5052032;28;20028;-68
2022/06/27 06:37:29;;;;;;;31.42;21.63;;;;;;;16.51;100.00;101396.97;5051015;28;20029;-67
2022/06/27 06:39:54;;;;;;;32.78;22.38;;;;;;;16.54;100.00;101392.50;5052004;28;20458;-67
2022/06/27 06:42:20;;;;;;;32.90;22.10;;;;;;;16.62;100.00;101378.19;5051790;28;20039;-66
2022/06/27 06:44:46;;;;;;;32.83;21.90;;;;;;;16.71;100.00;101364.72;5052125;28;20033;-66
2022/06/27 06:47:12;;;;;;;33.33;22.30;;;;;;;16.79;100.00;101343.25;5052350;28;20028;-65
2022/06/27 06:49:39;;;;;;;31.05;21.67;;;;;;;16.83;100.00;101327.16;5053415;28;20049;-66
2022/06/27 06:52:05;;;;;;;29.88;21.33;;;;;;;16.94;100.00;101328.84;5048968;28;20040;-67
2022/06/27 06:54:31;;;;;;;30.48;21.58;;;;;;;16.99;100.00;101327.84;5049178;28;20127;-69
2022/06/27 06:56:57;;;;;;;31.48;21.17;;;;;;;17.20;100.00;101325.78;5050526;28;20100;-64
2022/06/27 06:59:22;;;;;;;29.17;20.52;;;;;;;17.43;100.00;101315.59;5049353;28;20013;-65
2022/06/27 07:01:48;;;;;;;29.88;21.05;;;;;;;17.66;100.00;101325.00;5049381;28;20033;-62
2022/06/27 07:04:15;;;;;;;30.25;20.00;;;;;;;17.70;100.00;101336.53;5049346;28;20018;-64
2022/06/27 07:06:41;;;;;;;30.30;20.77;;;;;;;17.74;100.00;101344.47;5047854;28;20017;-63
2022/06/27 07:09:06;;;;;;;29.33;21.05;;;;;;;17.84;100.00;101342.53;5051374;28;20044;-68
2022/06/27 07:11:32;;;;;;;30.55;20.35;;;;;;;17.90;100.00;101329.06;5050740;28;20086;-71
2022/06/27 07:13:58;;;;;;;31.05;20.50;;;;;;;17.98;100.00;101317.34;5051591;28;20413;-68
2022/06/27 07:16:25;;;;;;;29.85;20.35;;;;;;;17.99;100.00;101322.66;5049752;28;20132;-69
2022/06/27 07:18:54;;;;;;;30.45;20.55;;;;;;;17.97;100.00;101337.88;5047184;28;20145;-68
2022/06/27 07:21:20;;;;;;;29.80;20.50;;;;;;;18.03;100.00;101345.78;5047037;28;20063;-68
2022/06/27 07:23:47;;;;;;;30.17;20.15;;;;;;;18.33;100.00;101353.25;5050926;28;20065;-68
2022/06/27 07:26:17;;;;;;;29.73;19.65;;;;;;;18.59;100.00;101366.09;5051029;28;20380;-69
2022/06/27 07:28:43;;;;;;;28.70;17.65;;;;;;;18.56;100.00;101377.75;5051085;28;20102;-66
2022/06/27 07:31:11;;;;;;;29.25;18.48;;;;;;;18.60;100.00;101383.94;5049875;28;20025;-69
2022/06/27 07:33:36;;;;;;;27.45;17.05;;;;;;;18.72;100.00;101364.91;5050144;28;20043;-67
2022/06/27 07:36:03;;;;;;;27.00;17.52;;;;;;;19.03;100.00;101372.31;5050707;28;20104;-67
2022/06/27 07:38:32;;;;;;;27.30;17.52;;;;;;;19.11;100.00;101373.03;5048717;28;20132;-66
2022/06/27 07:40:57;;;;;;;28.60;15.90;;;;;;;19.17;100.00;101364.84;5050488;28;20021;-66
2022/06/27 07:43:23;;;;;;;25.70;16.20;;;;;;;19.34;100.00;101379.66;5050753;28;20028;-65
2022/06/27 07:45:48;;;;;;;27.00;16.05;;;;;;;19.44;100.00;101381.19;5050755;28;20044;-64
2022/06/27 07:48:16;;;;;;;27.83;16.92;;;;;;;19.70;100.00;101385.00;5050815;28;20032;-67
2022/06/27 07:50:42;;;;;;;25.60;14.40;;;;;;;19.43;100.00;101384.78;5052340;28;20496;-63
2022/06/27 07:53:12;;;;;;;24.60;15.35;;;;;;;19.12;100.00;101395.31;5052254;28;20039;-64
2022/06/27 07:55:52;;;;;;;25.92;15.57;;;;;;;18.84;100.00;101397.72;5052303;28;20117;-64
2022/06/27 07:58:19;;;;;;;29.73;16.08;;;;;;;18.68;100.00;101398.00;5049367;28;20021;-65
2022/06/27 08:00:49;;;;;;;25.50;14.82;;;;;;;18.60;100.00;101397.31;5052470;28;20072;-64
2022/06/27 08:06:00;;;;;;;28.00;16.48;;;;;;;18.83;100.00;101410.22;5051376;28;20047;-61
2022/06/27 08:08:27;;;;;;;28.08;17.10;;;;;;;18.90;100.00;101411.00;5052043;28;20017;-61
2022/06/27 08:10:54;;;;;;;27.33;17.27;;;;;;;19.08;100.00;101405.25;5052621;28;20036;-61
2022/06/27 08:13:20;;;;;;;26.98;16.48;;;;;;;19.30;100.00;101407.44;5052139;28;20036;-61
2022/06/27 08:15:47;;;;;;;26.58;15.65;;;;;;;19.50;100.00;101417.72;5052146;28;20033;-62
2022/06/27 08:18:14;;;;;;;25.90;15.40;;;;;;;19.54;100.00;101405.97;5051733;28;20020;-61
2022/06/27 08:20:40;;;;;;;24.67;15.07;;;;;;;19.58;100.00;101398.75;5056223;28;20460;-61
2022/06/27 08:23:06;;;;;;;24.92;13.60;;;;;;;19.60;100.00;101408.53;5055951;28;20094;-61
2022/06/27 08:25:33;;;;;;;23.38;12.88;;;;;;;19.59;100.00;101403.19;5056348;28;20017;-61
2022/06/27 08:27:58;;;;;;;24.77;12.95;;;;;;;19.44;100.00;101421.41;5055888;28;20108;-61
2022/06/27 08:30:25;;;;;;;24.48;13.52;;;;;;;19.30;100.00;101427.06;5056018;28;20024;-62
2022/06/27 08:32:54;;;;;;;24.25;13.57;;;;;;;19.11;100.00;101439.13;5056220;28;20047;-61
2022/06/27 08:35:20;;;;;;;24.20;13.02;;;;;;;19.07;100.00;101438.31;5056267;28;20021;-61
2022/06/27 08:37:46;;;;;;;24.00;12.73;;;;;;;19.10;100.00;101435.56;5055896;28;20025;-61
2022/06/27 08:40:14;;;;;;;26.17;12.57;;;;;;;19.12;100.00;101439.09;5055989;28;20040;-61
2022/06/27 08:42:40;;;;;;;24.40;12.07;;;;;;;19.16;100.00;101435.44;5056087;28;20463;-61
2022/06/27 08:45:07;;;;;;;22.75;11.77;;;;;;;19.32;100.00;101432.41;5055759;28;20097;-61
2022/06/27 08:47:32;;;;;;;21.75;11.45;;;;;;;19.40;100.00;101437.59;5052411;28;20033;-61
2022/06/27 08:49:57;;;;;;;23.88;12.30;;;;;;;19.52;100.00;101432.81;5055532;28;20052;-61
2022/06/27 08:52:24;;;;;;;24.13;12.10;;;;;;;19.52;100.00;101437.31;5055472;28;20170;-61
2022/06/27 08:54:51;;;;;;;23.08;12.23;;;;;;;19.55;100.00;101431.88;5056021;28;20113;-62
2022/06/27 08:57:18;;;;;;;23.83;12.02;;;;;;;19.70;100.00;101441.34;5055359;28;20103;-61
2022/06/27 08:59:44;;;;;;;23.25;11.82;;;;;;;19.90;100.00;101437.31;5055360;28;20036;-61
2022/06/27 09:02:16;;;;;;;22.65;11.85;;;;;;;20.10;100.00;101445.75;5055848;28;20475;-61
2022/06/27 09:05:03;;;;;;;22.27;11.70;;;;;;;20.38;100.00;101461.13;5055738;28;20028;-62
2022/06/27 09:07:48;;;;;;;22.95;10.93;;;;;;;20.65;100.00;101467.53;5055499;28;20476;-62
2022/06/27 09:10:27;;;;;;;21.88;10.90;;;;;;;20.77;100.00;101471.72;5053585;28;20040;-61
2022/06/27 09:13:01;;;;;;;22.15;10.18;;;;;;;21.06;100.00;101456.56;5055309;28;20028;-61
2022/06/27 09:15:50;;;;;;;21.77;9.40;;;;;;;21.09;100.00;101460.97;5053673;28;20043;-61
2022/06/27 09:18:18;;;;;;;22.00;10.18;;;;;;;21.11;100.00;101443.84;5025242;28;20492;-62
2022/06/27 09:21:00;;;;;;;21.08;9.35;;;;;;;21.54;100.00;101434.50;5032745;28;20116;-61
2022/06/27 09:26:28;;;;;;;21.13;9.10;;;;;;;21.96;100.00;101451.06;5020803;28;20053;-62
2022/06/27 09:28:55;;;;;;;20.00;8.80;;;;;;;21.86;100.00;101450.53;5022712;28;20503;-61
2022/06/27 09:31:23;;;;;;;21.20;10.05;;;;;;;21.76;100.00;101458.88;5021994;28;20029;-63
2022/06/27 09:34:01;;;;;;;21.58;9.50;;;;;;;21.97;100.00;101460.91;5023323;28;20030;-64
2022/06/27 09:36:29;;;;;;;21.35;9.25;;;;;;;21.98;100.00;101455.47;5020891;28;20068;-61
2022/06/27 09:38:55;;;;;;;20.33;8.60;;;;;;;22.18;100.00;101451.22;5024232;28;20053;-61
2022/06/27 09:41:25;;;;;;;20.85;8.57;;;;;;;22.49;97.09;101444.78;5021747;28;20042;-61
2022/06/27 09:43:51;;;;;;;20.92;8.73;;;;;;;22.68;93.20;101443.16;5023493;28;20073;-62
2022/06/27 09:46:17;;;;;;;21.13;8.70;;;;;;;22.78;91.28;101446.41;5022137;28;20025;-62
2022/06/27 09:48:45;;;;;;;20.45;8.77;;;;;;;22.81;92.99;101441.78;5022440;28;20042;-62
2022/06/27 09:51:16;;;;;;;19.02;8.30;;;;;;;23.20;92.96;101450.25;5022829;28;20045;-62
2022/06/27 09:53:49;;;;;;;20.88;8.27;;;;;;;23.20;90.29;101443.03;5022014;28;20034;-63
2022/06/27 09:56:18;;;;;;;18.42;6.63;;;;;;;23.25;88.58;101441.03;5014165;28;20042;-63
2022/06/27 09:58:44;;;;;;;19.83;7.43;;;;;;;22.94;86.86;101441.31;5012495;28;20116;-62
2022/06/27 10:01:10;;;;;;;18.55;7.13;;;;;;;22.80;87.13;101442.72;5012302;28;20034;-63
2022/06/27 10:03:37;;;;;;;19.55;7.10;;;;;;;22.77;87.02;101434.72;5036271;28;20484;-68
2022/06/27 10:06:05;;;;;;;19.05;6.63;;;;;;;22.84;84.92;101430.00;5053936;28;20029;-65
2022/06/27 10:08:32;;;;;;;18.95;5.90;;;;;;;23.07;86.10;101433.66;5054378;28;20029;-70
2022/06/27 10:11:01;;;;;;;18.95;6.40;;;;;;;23.38;85.87;101429.78;5050386;28;20108;-67
2022/06/27 10:13:30;;;;;;;19.25;7.25;;;;;;;23.63;81.83;101419.72;5054309;28;20598;-67
2022/06/27 10:16:05;;;;;;;19.17;7.20;;;;;;;24.21;82.39;101417.34;5054546;28;20033;-64
2022/06/27 10:18:50;;;;;;;19.30;7.20;;;;;;;24.79;82.29;101422.00;5050150;28;20043;-63
2022/06/27 10:21:27;;;;;;;20.48;7.20;;;;;;;25.00;79.65;101420.09;5053922;28;20032;-67
2022/06/27 10:24:16;;;;;;;18.60;6.43;;;;;;;25.16;79.77;101422.94;5050351;28;20036;-67
2022/06/27 10:26:42;;;;;;;18.27;6.07;;;;;;;24.74;73.50;101416.78;5041276;28;20034;-67
2022/06/27 10:29:37;;;;;;;18.23;5.72;;;;;;;24.51;77.02;101424.09;5030747;28;20412;-69
2022/06/27 10:32:05;;;;;;;21.60;7.30;;;;;;;24.19;73.78;101420.13;5034023;28;20427;-70
2022/06/27 10:34:39;;;;;;;19.23;6.82;;;;;;;24.33;78.27;101431.19;5036648;28;20826;-71
2022/06/27 10:37:26;;;;;;;19.50;6.75;;;;;;;24.22;79.36;101428.09;5035600;28;20031;-71
2022/06/27 10:39:53;;;;;;;18.60;5.78;;;;;;;23.88;77.95;101425.94;5032538;28;20091;-68
2022/06/27 10:42:57;;;;;;;17.98;5.70;;;;;;;23.69;80.12;101434.78;5031647;28;20103;-68
2022/06/27 10:45:25;;;;;;;17.30;5.55;;;;;;;23.18;79.28;101431.41;5008043;28;20565;-67
2022/06/27 10:47:53;;;;;;;18.15;5.70;;;;;;;22.92;81.55;101427.91;5009623;28;20044;-68
2022/06/27 10:50:21;;;;;;;17.35;5.10;;;;;;;22.78;80.27;101435.63;5007857;28;20042;-67
2022/06/27 10:52:47;;;;;;;17.50;5.20;;;;;;;22.68;80.79;101428.84;5008980;28;20033;-68
2022/06/27 10:55:32;;;;;;;16.48;4.95;;;;;;;22.57;83.21;101424.72;5009109;28;20029;-67
2022/06/27 10:57:58;;;;;;;18.10;5.72;;;;;;;22.41;84.14;101424.41;5008624;28;20509;-68
2022/06/27 11:00:39;;;;;;;18.23;6.15;;;;;;;22.40;85.30;101433.41;5009027;28;20381;-68
2022/06/27 11:03:05;;;;;;;19.58;6.43;;;;;;;22.26;85.92;101430.28;5014403;28;20184;-67
2022/06/27 11:05:51;;;;;;;19.23;6.90;;;;;;;22.13;87.87;101431.66;5029093;28;20056;-66
2022/06/27 11:08:16;;;;;;;19.08;6.47;;;;;;;21.92;86.91;101432.34;5028645;28;20120;-69
2022/06/27 11:10:45;;;;;;;20.42;7.30;;;;;;;21.91;87.22;101435.06;5027752;28;20179;-64
2022/06/27 11:13:10;;;;;;;18.63;6.70;;;;;;;22.16;85.70;101426.16;5029620;28;20068;-67
2022/06/27 11:15:36;;;;;;;19.85;6.38;;;;;;;22.45;86.00;101434.13;5034600;28;20048;-64